Time;durP1;ratioP1;P1;durP2;ratioP2;P2;SDS_P1;SDS_P2;PMS_P1;PMS_P2;Temp;Humidity;BMP_temperature;BMP_pressure;BME280_temperature;BME280_humidity;BME280_pressure;Samples;Min_cycle;Max_cycle;Signal;HPM_P1;HPM_P2
2022/09/28 00:02:23;;;;;;;;;;;;;;;;;;5087273;28;19928;-66
2022/09/28 00:04:50;;;;;;;;;;;;;;;;;;5082320;28;19928;-65
2022/09/28 00:07:17;;;;;;;;;;;;;;;;;;5080386;28;19951;-65
2022/09/28 00:09:44;;;;;;;;;;;;;;;;;;5084319;28;20359;-67
2022/09/28 00:12:11;;;;;;;;;;;;;;;;;;5078978;28;20394;-70
2022/09/28 00:14:39;;;;;;;;;;;;;;;;;;5083446;28;19993;-65
2022/09/28 00:17:07;;;;;;;;;;;;;;;;;;5078705;28;19932;-65
2022/09/28 00:19:34;;;;;;;;;;;;;;;;;;5078566;28;20448;-64
2022/09/28 00:22:01;;;;;;;;;;;;;;;;;;5087961;28;19928;-66
2022/09/28 00:24:28;;;;;;;;;;;;;;;;;;5077576;28;20331;-66
2022/09/28 00:26:55;;;;;;;;;;;;;;;;;;5093727;28;19928;-66
2022/09/28 00:29:22;;;;;;;;;;;;;;;;;;5091518;28;20370;-67
2022/09/28 00:31:49;;;;;;;;;;;;;;;;;;5099043;28;19931;-65
2022/09/28 00:34:16;;;;;;;;;;;;;;;;;;5087881;28;19929;-65
2022/09/28 00:36:44;;;;;;;;;;;;;;;;;;5087705;28;19932;-67
2022/09/28 00:39:11;;;;;;;;;;;;;;;;;;5092312;28;19928;-67
2022/09/28 00:41:38;;;;;;;;;;;;;;;;;;5085196;28;20018;-66
2022/09/28 00:44:05;;;;;;;;;;;;;;;;;;5083210;28;19932;-65
2022/09/28 00:46:32;;;;;;;;;;;;;;;;;;5090980;28;19966;-66
2022/09/28 00:49:01;;;;;;;;;;;;;;;;;;5087916;28;20413;-64
2022/09/28 00:51:28;;;;;;;;;;;;;;;;;;5095745;28;19928;-65
2022/09/28 00:53:56;;;;;;;;;;;;;;;;;;5093689;28;19935;-66
2022/09/28 00:56:23;;;;;;;;;;;;;;;;;;5095471;28;19928;-66
2022/09/28 00:58:50;;;;;;;;;;;;;;;;;;5057491;28;19935;-65
2022/09/28 01:01:17;;;;;;;;;;;;;;;;;;5078434;28;20452;-65
2022/09/28 01:03:44;;;;;;;;;;;;;;;;;;5075643;28;19977;-65
2022/09/28 01:06:12;;;;;;;;;;;;;;;;;;5083507;28;20306;-66
2022/09/28 01:08:39;;;;;;;;;;;;;;;;;;5065247;28;19947;-65
2022/09/28 01:11:06;;;;;;;;;;;;;;;;;;5086384;28;19985;-68
2022/09/28 01:13:33;;;;;;;;;;;;;;;;;;5097919;28;20329;-65
2022/09/28 01:16:00;;;;;;;;;;;;;;;;;;5089905;28;19924;-66
2022/09/28 01:18:27;;;;;;;;;;;;;;;;;;5090811;28;19928;-65
2022/09/28 01:20:54;;;;;;;;;;;;;;;;;;5093131;28;20006;-65
2022/09/28 01:23:21;;;;;;;;;;;;;;;;;;5070106;28;19928;-67
2022/09/28 01:25:49;;;;;;;;;;;;;;;;;;5088725;28;19932;-67
2022/09/28 01:28:16;;;;;;;;;;;;;;;;;;5091152;28;20462;-66
2022/09/28 01:30:43;;;;;;;;;;;;;;;;;;5087818;28;19927;-66
2022/09/28 01:33:11;;;;;;;;;;;;;;;;;;5072428;28;19955;-64
2022/09/28 01:35:38;;;;;;;;;;;;;;;;;;5091356;28;19938;-65
2022/09/28 01:38:05;;;;;;;;;;;;;;;;;;5087295;28;19961;-66
2022/09/28 01:40:32;;;;;;;;;;;;;;;;;;5092768;28;19924;-67
2022/09/28 01:42:59;;;;;;;;;;;;;;;;;;5089055;28;19928;-66
2022/09/28 01:45:26;;;;;;;;;;;;;;;;;;5084939;28;19951;-67
2022/09/28 01:47:53;;;;;;;;;;;;;;;;;;5087509;28;19935;-65
2022/09/28 01:50:20;;;;;;;;;;;;;;;;;;5081335;28;19936;-65
2022/09/28 01:52:47;;;;;;;;;;;;;;;;;;5082075;28;19928;-66
2022/09/28 01:55:14;;;;;;;;;;;;;;;;;;5084829;28;19932;-65
2022/09/28 01:57:41;;;;;;;;;;;;;;;;;;5083006;28;19936;-67
2022/09/28 02:00:09;;;;;;;;;;;;;;;;;;5090492;28;19932;-65
2022/09/28 02:02:39;;;;;;;;;;;;;;;;;;5083352;28;19990;-67
2022/09/28 02:05:06;;;;;;;;;;;;;;;;;;5083808;28;19931;-67
2022/09/28 02:07:33;;;;;;;;;;;;;;;;;;5085453;28;19935;-67
2022/09/28 02:10:00;;;;;;;;;;;;;;;;;;5084828;28;19981;-65
2022/09/28 02:12:27;;;;;;;;;;;;;;;;;;5082951;28;19935;-68
2022/09/28 02:14:54;;;;;;;;;;;;;;;;;;5095504;28;19924;-66
2022/09/28 02:17:21;;;;;;;;;;;;;;;;;;5092038;28;19932;-67
2022/09/28 02:19:48;;;;;;;;;;;;;;;;;;5092656;28;20375;-67
2022/09/28 02:22:15;;;;;;;;;;;;;;;;;;5088951;28;19924;-66
2022/09/28 02:24:42;;;;;;;;;;;;;;;;;;5097440;28;19966;-65
2022/09/28 02:27:09;;;;;;;;;;;;;;;;;;5087519;28;20345;-66
2022/09/28 02:29:36;;;;;;;;;;;;;;;;;;5088225;28;19928;-67
2022/09/28 02:32:03;;;;;;;;;;;;;;;;;;5090953;28;20580;-66
2022/09/28 02:34:30;;;;;;;;;;;;;;;;;;5094803;28;19946;-66
2022/09/28 02:36:57;;;;;;;;;;;;;;;;;;5092175;28;20404;-66
2022/09/28 02:39:25;;;;;;;;;;;;;;;;;;5088302;28;19933;-66
2022/09/28 02:41:52;;;;;;;;;;;;;;;;;;5088621;28;19935;-66
2022/09/28 02:44:19;;;;;;;;;;;;;;;;;;5090537;28;19977;-65
2022/09/28 02:46:46;;;;;;;;;;;;;;;;;;5089465;28;19924;-66
2022/09/28 02:49:13;;;;;;;;;;;;;;;;;;5090048;28;20303;-67
2022/09/28 02:51:40;;;;;;;;;;;;;;;;;;5089133;28;19928;-65
2022/09/28 02:54:07;;;;;;;;;;;;;;;;;;5087557;28;19936;-66
2022/09/28 02:56:34;;;;;;;;;;;;;;;;;;5091452;28;20597;-67
2022/09/28 02:59:01;;;;;;;;;;;;;;;;;;5088330;28;19982;-66
2022/09/28 03:01:28;;;;;;;;;;;;;;;;;;5087568;28;19935;-66
2022/09/28 03:03:55;;;;;;;;;;;;;;;;;;5087343;28;20013;-66
2022/09/28 03:06:22;;;;;;;;;;;;;;;;;;5086059;28;19928;-66
2022/09/28 03:08:49;;;;;;;;;;;;;;;;;;5090260;28;19923;-66
2022/09/28 03:11:16;;;;;;;;;;;;;;;;;;5085307;28;19978;-66
2022/09/28 03:13:43;;;;;;;;;;;;;;;;;;5086614;28;19976;-66
2022/09/28 03:16:10;;;;;;;;;;;;;;;;;;5088445;28;19927;-67
2022/09/28 03:18:37;;;;;;;;;;;;;;;;;;5091478;28;19924;-66
2022/09/28 03:21:04;;;;;;;;;;;;;;;;;;5087799;28;19931;-67
2022/09/28 03:23:31;;;;;;;;;;;;;;;;;;5080823;28;19939;-67
2022/09/28 03:25:59;;;;;;;;;;;;;;;;;;5077459;28;19936;-67
2022/09/28 03:28:27;;;;;;;;;;;;;;;;;;5076765;28;19986;-66
2022/09/28 03:30:54;;;;;;;;;;;;;;;;;;5077869;28;19968;-68
2022/09/28 03:33:21;;;;;;;;;;;;;;;;;;5081375;28;20584;-68
2022/09/28 03:35:48;;;;;;;;;;;;;;;;;;5089300;28;19924;-66
2022/09/28 03:38:15;;;;;;;;;;;;;;;;;;5085671;28;20354;-68
2022/09/28 03:40:42;;;;;;;;;;;;;;;;;;5084888;28;19935;-68
2022/09/28 03:43:09;;;;;;;;;;;;;;;;;;5089505;28;19989;-68
2022/09/28 03:45:36;;;;;;;;;;;;;;;;;;5082688;28;19928;-67
2022/09/28 03:48:03;;;;;;;;;;;;;;;;;;5081877;28;19935;-71
2022/09/28 03:50:30;;;;;;;;;;;;;;;;;;5084789;28;19932;-68
2022/09/28 03:52:57;;;;;;;;;;;;;;;;;;5080070;28;19935;-67
2022/09/28 03:55:24;;;;;;;;;;;;;;;;;;5078812;28;19943;-67
2022/09/28 03:57:51;;;;;;;;;;;;;;;;;;5083103;28;19961;-67
2022/09/28 04:00:18;;;;;;;;;;;;;;;;;;5082623;28;19981;-67
2022/09/28 04:02:45;;;;;;;;;;;;;;;;;;5081862;28;19928;-65
2022/09/28 04:05:12;;;;;;;;;;;;;;;;;;5084406;28;19970;-68
2022/09/28 04:07:39;;;;;;;;;;;;;;;;;;5081670;28;19977;-68
2022/09/28 04:10:06;;;;;;;;;;;;;;;;;;5085338;28;19936;-66
2022/09/28 04:12:33;;;;;;;;;;;;;;;;;;5080361;28;19936;-67
2022/09/28 04:15:00;;;;;;;;;;;;;;;;;;5084006;28;19985;-66
2022/09/28 04:17:27;;;;;;;;;;;;;;;;;;5089989;28;19928;-68
2022/09/28 04:19:54;;;;;;;;;;;;;;;;;;5082937;28;20381;-68
2022/09/28 04:22:22;;;;;;;;;;;;;;;;;;5087407;28;19940;-67
2022/09/28 04:24:49;;;;;;;;;;;;;;;;;;5082425;28;19928;-69
2022/09/28 04:30:01;;;;;;;;;;;;;;;;;;5088419;28;19927;-68
2022/09/28 04:32:28;;;;;;;;;;;;;;;;;;5084613;28;20022;-67
2022/09/28 04:34:55;;;;;;;;;;;;;;;;;;5087952;28;19928;-67
2022/09/28 04:37:22;;;;;;;;;;;;;;;;;;5084306;28;19928;-67
2022/09/28 04:39:49;;;;;;;;;;;;;;;;;;5086062;28;19951;-68
2022/09/28 04:42:16;;;;;;;;;;;;;;;;;;5086777;28;19981;-67
2022/09/28 04:44:43;;;;;;;;;;;;;;;;;;5088138;28;19928;-67
2022/09/28 04:47:10;;;;;;;;;;;;;;;;;;5090593;28;19947;-66
2022/09/28 04:49:37;;;;;;;;;;;;;;;;;;5085289;28;19928;-67
2022/09/28 04:52:04;;;;;;;;;;;;;;;;;;5087072;28;19935;-67
2022/09/28 04:54:31;;;;;;;;;;;;;;;;;;5089089;28;19931;-67
2022/09/28 04:56:58;;;;;;;;;;;;;;;;;;5086636;28;19936;-67
2022/09/28 04:59:25;;;;;;;;;;;;;;;;;;5088667;28;19932;-67
2022/09/28 05:01:53;;;;;;;;;;;;;;;;;;5080605;28;20351;-68
2022/09/28 05:04:20;;;;;;;;;;;;;;;;;;5080163;28;19982;-69
2022/09/28 05:06:47;;;;;;;;;;;;;;;;;;5080525;28;19927;-67
2022/09/28 05:09:14;;;;;;;;;;;;;;;;;;5081334;28;19931;-67
2022/09/28 05:11:41;;;;;;;;;;;;;;;;;;5081893;28;20010;-67
2022/09/28 05:14:08;;;;;;;;;;;;;;;;;;5089443;28;19934;-67
2022/09/28 05:16:35;;;;;;;;;;;;;;;;;;5083465;28;20458;-66
2022/09/28 05:19:02;;;;;;;;;;;;;;;;;;5075259;28;19932;-67
2022/09/28 05:21:29;;;;;;;;;;;;;;;;;;5074477;28;19927;-69
2022/09/28 05:23:57;;;;;;;;;;;;;;;;;;5071170;28;20392;-66
2022/09/28 05:26:24;;;;;;;;;;;;;;;;;;5077320;28;19939;-70
2022/09/28 05:28:51;;;;;;;;;;;;;;;;;;5080821;28;19924;-66
2022/09/28 05:31:18;;;;;;;;;;;;;;;;;;5078184;28;19932;-67
2022/09/28 05:33:45;;;;;;;;;;;;;;;;;;5080243;28;19931;-68
2022/09/28 05:36:12;;;;;;;;;;;;;;;;;;5083644;28;20394;-67
2022/09/28 05:38:39;;;;;;;;;;;;;;;;;;5077881;28;20458;-67
2022/09/28 05:41:06;;;;;;;;;;;;;;;;;;5081159;28;19931;-69
2022/09/28 05:43:33;;;;;;;;;;;;;;;;;;5085318;28;19936;-66
2022/09/28 05:46:00;;;;;;;;;;;;;;;;;;5080409;28;19932;-68
2022/09/28 05:48:27;;;;;;;;;;;;;;;;;;5082412;28;19950;-68
2022/09/28 05:50:54;;;;;;;;;;;;;;;;;;5081846;28;19928;-68
2022/09/28 05:53:21;;;;;;;;;;;;;;;;;;5081467;28;20375;-67
2022/09/28 05:55:48;;;;;;;;;;;;;;;;;;5077954;28;19933;-67
2022/09/28 05:58:15;;;;;;;;;;;;;;;;;;5081226;28;19924;-68
2022/09/28 06:00:42;;;;;;;;;;;;;;;;;;5080835;28;19985;-68
2022/09/28 06:03:09;;;;;;;;;;;;;;;;;;5085122;28;19963;-70
2022/09/28 06:05:37;;;;;;;;;;;;;;;;;;5081624;28;19924;-67
2022/09/28 06:08:04;;;;;;;;;;;;;;;;;;5090561;28;19939;-68
2022/09/28 06:10:31;;;;;;;;;;;;;;;;;;5089147;28;19928;-68
2022/09/28 06:12:58;;;;;;;;;;;;;;;;;;5083999;28;19977;-66
2022/09/28 06:15:25;;;;;;;;;;;;;;;;;;5089185;28;19970;-67
2022/09/28 06:17:52;;;;;;;;;;;;;;;;;;5082587;28;19928;-67
2022/09/28 06:20:19;;;;;;;;;;;;;;;;;;5086027;28;19927;-67
2022/09/28 06:22:46;;;;;;;;;;;;;;;;;;5091880;28;20302;-68
2022/09/28 06:25:13;;;;;;;;;;;;;;;;;;5085575;28;19931;-66
2022/09/28 06:27:41;;;;;;;;;;;;;;;;;;5084802;28;20595;-66
2022/09/28 06:30:08;;;;;;;;;;;;;;;;;;5086711;28;19936;-68
2022/09/28 06:32:35;;;;;;;;;;;;;;;;;;5087014;28;19924;-67
2022/09/28 06:35:02;;;;;;;;;;;;;;;;;;5084960;28;19928;-67
2022/09/28 06:37:31;;;;;;;;;;;;;;;;;;5087608;28;19924;-67
2022/09/28 06:39:58;;;;;;;;;;;;;;;;;;5084427;28;19935;-66
2022/09/28 06:42:25;;;;;;;;;;;;;;;;;;5088144;28;19924;-67
2022/09/28 06:44:52;;;;;;;;;;;;;;;;;;5086957;28;19936;-67
2022/09/28 06:47:19;;;;;;;;;;;;;;;;;;5090235;28;19993;-67
2022/09/28 06:49:50;;;;;;;;;;;;;;;;;;5083077;28;19932;-68
2022/09/28 06:52:17;;;;;;;;;;;;;;;;;;5087392;28;19975;-67
2022/09/28 06:54:44;;;;;;;;;;;;;;;;;;5085765;28;19932;-67
2022/09/28 06:57:11;;;;;;;;;;;;;;;;;;5085977;28;19931;-71
2022/09/28 06:59:38;;;;;;;;;;;;;;;;;;5088832;28;19936;-67
2022/09/28 07:02:06;;;;;;;;;;;;;;;;;;5084102;28;19928;-66
2022/09/28 07:04:33;;;;;;;;;;;;;;;;;;5083191;28;19928;-66
2022/09/28 07:07:00;;;;;;;;;;;;;;;;;;5085162;28;19929;-68
2022/09/28 07:09:27;;;;;;;;;;;;;;;;;;5083202;28;20019;-67
2022/09/28 07:11:54;;;;;;;;;;;;;;;;;;5081401;28;20385;-67
2022/09/28 07:14:23;;;;;;;;;;;;;;;;;;5094080;28;19923;-67
2022/09/28 07:16:50;;;;;;;;;;;;;;;;;;5089514;28;20302;-67
2022/09/28 07:19:17;;;;;;;;;;;;;;;;;;5081162;28;20024;-68
2022/09/28 07:21:44;;;;;;;;;;;;;;;;;;5085189;28;19925;-67
2022/09/28 07:24:12;;;;;;;;;;;;;;;;;;5085967;28;19946;-66
2022/09/28 07:26:39;;;;;;;;;;;;;;;;;;5083383;28;20055;-67
2022/09/28 07:29:07;;;;;;;;;;;;;;;;;;5089924;28;19932;-69
2022/09/28 07:31:34;;;;;;;;;;;;;;;;;;5083093;28;19932;-66
2022/09/28 07:34:01;;;;;;;;;;;;;;;;;;5086013;28;19925;-66
2022/09/28 07:36:30;;;;;;;;;;;;;;;;;;5080394;28;19928;-67
2022/09/28 07:38:57;;;;;;;;;;;;;;;;;;5092667;28;20425;-65
2022/09/28 07:41:31;;;;;;;;;;;;;;;;;;5081094;28;19928;-67
2022/09/28 07:44:04;;;;;;;;;;;;;;;;;;5082467;28;19932;-66
2022/09/28 07:46:31;;;;;;;;;;;;;;;;;;5083677;28;19935;-67
2022/09/28 07:48:58;;;;;;;;;;;;;;;;;;5086424;28;19932;-66
2022/09/28 07:51:25;;;;;;;;;;;;;;;;;;5087927;28;19935;-68
2022/09/28 07:53:53;;;;;;;;;;;;;;;;;;5087209;28;19955;-66
2022/09/28 07:56:20;;;;;;;;;;;;;;;;;;5082865;28;20319;-65
2022/09/28 07:58:47;;;;;;;;;;;;;;;;;;5077869;28;19924;-67
2022/09/28 08:01:15;;;;;;;;;;;;;;;;;;5075323;28;20018;-68
2022/09/28 08:03:44;;;;;;;;;;;;;;;;;;5070080;28;20385;-65
2022/09/28 08:06:11;;;;;;;;;;;;;;;;;;5071244;28;19929;-71
2022/09/28 08:08:43;;;;;;;;;;;;;;;;;;5071862;28;19924;-66
2022/09/28 08:11:10;;;;;;;;;;;;;;;;;;5083764;28;19924;-68
2022/09/28 08:13:37;;;;;;;;;;;;;;;;;;5070511;28;19924;-68
2022/09/28 08:16:07;;;;;;;;;;;;;;;;;;5075153;28;20041;-67
2022/09/28 08:18:34;;;;;;;;;;;;;;;;;;5070728;28;19940;-67
2022/09/28 08:23:45;;;;;;;;;;;;;;;;;;5076694;28;20282;-68
2022/09/28 08:26:12;;;;;;;;;;;;;;;;;;5079501;28;19924;-66
2022/09/28 08:28:41;;;;;;;;;;;;;;;;;;5082328;28;19943;-67
2022/09/28 08:31:08;;;;;;;;;;;;;;;;;;5085387;28;20409;-68
2022/09/28 08:33:35;;;;;;;;;;;;;;;;;;5083762;28;19932;-66
2022/09/28 08:36:03;;;;;;;;;;;;;;;;;;5084189;28;20298;-67
2022/09/28 08:38:30;;;;;;;;;;;;;;;;;;5082632;28;19935;-66
2022/09/28 08:40:57;;;;;;;;;;;;;;;;;;5086594;28;19930;-67
2022/09/28 08:43:24;;;;;;;;;;;;;;;;;;5085839;28;19936;-68
2022/09/28 08:45:51;;;;;;;;;;;;;;;;;;5087277;28;19994;-66
2022/09/28 08:51:05;;;;;;;;;;;;;;;;;;5082225;28;19995;-65
2022/09/28 08:53:32;;;;;;;;;;;;;;;;;;5089041;28;20507;-67
2022/09/28 08:55:59;;;;;;;;;;;;;;;;;;5081953;28;19932;-67
2022/09/28 08:58:27;;;;;;;;;;;;;;;;;;5082751;28;20520;-66
2022/09/28 09:00:54;;;;;;;;;;;;;;;;;;5082979;28;21123;-69
2022/09/28 09:03:21;;;;;;;;;;;;;;;;;;5084371;28;19935;-67
2022/09/28 09:05:48;;;;;;;;;;;;;;;;;;5077624;28;20035;-66
2022/09/28 09:08:15;;;;;;;;;;;;;;;;;;5079463;28;19936;-67
2022/09/28 09:10:43;;;;;;;;;;;;;;;;;;5085091;28;19924;-66
2022/09/28 09:13:11;;;;;;;;;;;;;;;;;;5088909;28;21216;-66
2022/09/28 09:15:38;;;;;;;;;;;;;;;;;;5083652;28;19927;-66
2022/09/28 09:18:05;;;;;;;;;;;;;;;;;;5078502;28;20667;-66
2022/09/28 09:20:32;;;;;;;;;;;;;;;;;;5086032;28;19939;-66
2022/09/28 09:22:59;;;;;;;;;;;;;;;;;;5085301;28;19932;-67
2022/09/28 09:25:26;;;;;;;;;;;;;;;;;;5084246;28;19928;-66
2022/09/28 09:27:53;;;;;;;;;;;;;;;;;;5082981;28;20006;-70
2022/09/28 09:30:21;;;;;;;;;;;;;;;;;;5083609;28;19934;-70
2022/09/28 09:32:49;;;;;;;;;;;;;;;;;;5085907;28;19928;-71
2022/09/28 09:35:16;;;;;;;;;;;;;;;;;;5087370;28;19928;-71
2022/09/28 09:37:43;;;;;;;;;;;;;;;;;;5086175;28;19955;-71
2022/09/28 09:40:10;;;;;;;;;;;;;;;;;;5093177;28;19965;-70
2022/09/28 09:42:37;;;;;;;;;;;;;;;;;;5087600;28;19932;-71
2022/09/28 09:45:04;;;;;;;;;;;;;;;;;;5091087;28;19935;-71
2022/09/28 09:47:31;;;;;;;;;;;;;;;;;;5081166;28;19927;-70
2022/09/28 09:50:00;;;;;;;;;;;;;;;;;;5086726;28;19971;-71
2022/09/28 09:52:27;;;;;;;;;;;;;;;;;;5085379;28;20014;-71
2022/09/28 09:54:54;;;;;;;;;;;;;;;;;;5091242;28;19933;-70
2022/09/28 09:57:21;;;;;;;;;;;;;;;;;;5088319;28;19935;-71
2022/09/28 09:59:48;;;;;;;;;;;;;;;;;;5088907;28;19935;-70
2022/09/28 10:02:15;;;;;;;;;;;;;;;;;;5083844;28;19928;-71
2022/09/28 10:04:43;;;;;;;;;;;;;;;;;;5085924;28;19923;-70
2022/09/28 10:07:10;;;;;;;;;;;;;;;;;;5081817;28;20232;-70
2022/09/28 10:09:37;;;;;;;;;;;;;;;;;;5080454;28;19924;-71
2022/09/28 10:12:04;;;;;;;;;;;;;;;;;;5083967;28;19932;-71
2022/09/28 10:14:31;;;;;;;;;;;;;;;;;;5086153;28;19935;-70
2022/09/28 10:16:58;;;;;;;;;;;;;;;;;;5085473;28;19928;-71
2022/09/28 10:19:25;;;;;;;;;;;;;;;;;;5083896;28;19932;-71
2022/09/28 10:21:52;;;;;;;;;;;;;;;;;;5088115;28;20015;-70
2022/09/28 10:24:19;;;;;;;;;;;;;;;;;;5075941;28;20807;-70
2022/09/28 10:26:46;;;;;;;;;;;;;;;;;;5076035;28;19934;-71
2022/09/28 10:29:13;;;;;;;;;;;;;;;;;;5075036;28;19931;-70
2022/09/28 10:31:40;;;;;;;;;;;;;;;;;;5074970;28;20714;-71
2022/09/28 10:34:07;;;;;;;;;;;;;;;;;;5079637;28;19936;-71
2022/09/28 10:36:37;;;;;;;;;;;;;;;;;;5082138;28;20488;-70
2022/09/28 10:39:04;;;;;;;;;;;;;;;;;;5080425;28;20387;-71
2022/09/28 10:41:31;;;;;;;;;;;;;;;;;;5085576;28;19935;-70
2022/09/28 10:44:05;;;;;;;;;;;;;;;;;;5083003;28;19936;-71
2022/09/28 10:46:32;;;;;;;;;;;;;;;;;;5088676;28;19975;-70
2022/09/28 10:48:59;;;;;;;;;;;;;;;;;;5084502;28;19932;-70
2022/09/28 10:51:27;;;;;;;;;;;;;;;;;;5078984;28;19935;-71
2022/09/28 10:53:54;;;;;;;;;;;;;;;;;;5078192;28;19928;-71
2022/09/28 10:56:21;;;;;;;;;;;;;;;;;;5078623;28;19935;-70
2022/09/28 10:58:48;;;;;;;;;;;;;;;;;;5081242;28;19928;-71
2022/09/28 11:01:15;;;;;;;;;;;;;;;;;;5073457;28;20412;-70
2022/09/28 11:03:42;;;;;;;;;;;;;;;;;;5081836;28;19931;-71
2022/09/28 11:06:09;;;;;;;;;;;;;;;;;;5086383;28;19928;-71
2022/09/28 11:08:36;;;;;;;;;;;;;;;;;;5084083;28;19943;-70
2022/09/28 11:11:03;;;;;;;;;;;;;;;;;;5086199;28;19923;-71
2022/09/28 11:13:30;;;;;;;;;;;;;;;;;;5089214;28;19928;-71
2022/09/28 11:15:58;;;;;;;;;;;;;;;;;;5089188;28;20293;-71
2022/09/28 11:18:25;;;;;;;;;;;;;;;;;;5086594;28;19934;-70
2022/09/28 11:20:52;;;;;;;;;;;;;;;;;;5094215;28;20421;-71
2022/09/28 11:23:19;;;;;;;;;;;;;;;;;;5092675;28;19928;-71
2022/09/28 11:25:46;;;;;;;;;;;;;;;;;;5088325;28;19932;-71
2022/09/28 11:28:13;;;;;;;;;;;;;;;;;;5085212;28;19932;-70
2022/09/28 11:30:40;;;;;;;;;;;;;;;;;;5086622;28;21386;-71
2022/09/28 11:33:08;;;;;;;;;;;;;;;;;;5086427;28;20033;-72
2022/09/28 11:35:35;;;;;;;;;;;;;;;;;;5076651;28;19958;-71
2022/09/28 11:38:02;;;;;;;;;;;;;;;;;;5079870;28;19932;-71
2022/09/28 11:40:29;;;;;;;;;;;;;;;;;;5084881;28;19932;-71
2022/09/28 11:42:56;;;;;;;;;;;;;;;;;;5088971;28;19932;-71
2022/09/28 11:45:23;;;;;;;;;;;;;;;;;;5079928;28;20337;-71
2022/09/28 11:47:52;;;;;;;;;;;;;;;;;;5079594;28;20415;-71
2022/09/28 11:50:19;;;;;;;;;;;;;;;;;;5080328;28;19928;-71
2022/09/28 11:52:46;;;;;;;;;;;;;;;;;;5077114;28;20041;-69
2022/09/28 11:55:13;;;;;;;;;;;;;;;;;;5072613;28;19932;-71
2022/09/28 11:57:40;;;;;;;;;;;;;;;;;;5094829;28;19971;-71
2022/09/28 12:00:08;;;;;;;;;;;;;;;;;;5086323;28;20295;-72
2022/09/28 12:02:35;;;;;;;;;;;;;;;;;;5081061;28;20457;-72
2022/09/28 12:05:02;;;;;;;;;;;;;;;;;;5078538;28;19929;-72
2022/09/28 12:07:30;;;;;;;;;;;;;;;;;;5084913;28;20286;-72
2022/09/28 12:09:57;;;;;;;;;;;;;;;;;;5080526;28;19928;-72
2022/09/28 12:12:24;;;;;;;;;;;;;;;;;;5073043;28;19925;-72
2022/09/28 12:14:51;;;;;;;;;;;;;;;;;;5077697;28;20363;-73
2022/09/28 12:17:18;;;;;;;;;;;;;;;;;;5082793;28;19936;-72
2022/09/28 12:19:45;;;;;;;;;;;;;;;;;;5078037;28;19997;-72
2022/09/28 12:22:12;;;;;;;;;;;;;;;;;;5077798;28;19935;-72
2022/09/28 12:24:39;;;;;;;;;;;;;;;;;;5076644;28;19985;-71
2022/09/28 12:27:06;;;;;;;;;;;;;;;;;;5074381;28;19924;-71
2022/09/28 12:29:33;;;;;;;;;;;;;;;;;;5079533;28;19924;-72
2022/09/28 12:32:00;;;;;;;;;;;;;;;;;;5075368;28;20597;-70
2022/09/28 12:34:27;;;;;;;;;;;;;;;;;;5072631;28;19935;-71
2022/09/28 12:36:54;;;;;;;;;;;;;;;;;;5080883;28;19932;-72
2022/09/28 12:39:21;;;;;;;;;;;;;;;;;;5081320;28;20417;-70
2022/09/28 12:41:48;;;;;;;;;;;;;;;;;;5082349;28;19935;-71
2022/09/28 12:44:17;;;;;;;;;;;;;;;;;;5087837;28;19938;-71
2022/09/28 12:46:46;;;;;;;;;;;;;;;;;;5085433;28;20251;-70
2022/09/28 12:49:13;;;;;;;;;;;;;;;;;;5083284;28;20022;-71
2022/09/28 12:51:40;;;;;;;;;;;;;;;;;;5081567;28;20447;-71
2022/09/28 12:54:07;;;;;;;;;;;;;;;;;;5082298;28;20401;-71
2022/09/28 12:56:34;;;;;;;;;;;;;;;;;;5077768;28;19932;-71
2022/09/28 12:59:01;;;;;;;;;;;;;;;;;;5083319;28;20007;-70
2022/09/28 13:01:28;;;;;;;;;;;;;;;;;;5070311;28;19935;-71
2022/09/28 13:03:55;;;;;;;;;;;;;;;;;;5071444;28;19924;-72
2022/09/28 13:06:22;;;;;;;;;;;;;;;;;;5084091;28;19928;-70
2022/09/28 13:08:49;;;;;;;;;;;;;;;;;;5091448;28;19931;-71
2022/09/28 13:11:17;;;;;;;;;;;;;;;;;;5092833;28;19955;-70
2022/09/28 13:13:44;;;;;;;;;;;;;;;;;;5087317;28;19928;-71
2022/09/28 13:16:11;;;;;;;;;;;;;;;;;;5083764;28;19928;-70
2022/09/28 13:18:38;;;;;;;;;;;;;;;;;;5076758;28;19937;-71
2022/09/28 13:21:05;;;;;;;;;;;;;;;;;;5078065;28;19932;-71
2022/09/28 13:23:32;;;;;;;;;;;;;;;;;;5074927;28;19928;-71
2022/09/28 13:25:59;;;;;;;;;;;;;;;;;;5078042;28;19982;-71
2022/09/28 13:28:26;;;;;;;;;;;;;;;;;;5078565;28;19932;-71
2022/09/28 13:30:53;;;;;;;;;;;;;;;;;;5074057;28;19936;-71
2022/09/28 13:33:20;;;;;;;;;;;;;;;;;;5075326;28;19947;-71
2022/09/28 13:35:48;;;;;;;;;;;;;;;;;;5080587;28;19932;-71
2022/09/28 13:38:15;;;;;;;;;;;;;;;;;;5081171;28;20377;-71
2022/09/28 13:40:42;;;;;;;;;;;;;;;;;;5074330;28;19924;-70
2022/09/28 13:43:09;;;;;;;;;;;;;;;;;;5078198;28;19956;-71
2022/09/28 13:45:36;;;;;;;;;;;;;;;;;;5077088;28;20182;-71
2022/09/28 13:48:03;;;;;;;;;;;;;;;;;;5077944;28;19928;-71
2022/09/28 13:50:30;;;;;;;;;;;;;;;;;;5081736;28;19942;-71
2022/09/28 13:52:57;;;;;;;;;;;;;;;;;;5075290;28;19929;-72
2022/09/28 13:55:24;;;;;;;;;;;;;;;;;;5075605;28;20279;-71
2022/09/28 13:57:51;;;;;;;;;;;;;;;;;;5069647;28;19928;-71
2022/09/28 14:00:18;;;;;;;;;;;;;;;;;;5073512;28;19949;-71
2022/09/28 14:02:46;;;;;;;;;;;;;;;;;;5078540;28;20788;-71
2022/09/28 14:05:13;;;;;;;;;;;;;;;;;;5085610;28;20034;-71
2022/09/28 14:07:40;;;;;;;;;;;;;;;;;;5089554;28;20037;-71
2022/09/28 14:10:07;;;;;;;;;;;;;;;;;;5090626;28;19939;-72
2022/09/28 14:12:34;;;;;;;;;;;;;;;;;;5085919;28;19932;-72
2022/09/28 14:15:01;;;;;;;;;;;;;;;;;;5088959;28;20450;-69
2022/09/28 14:17:29;;;;;;;;;;;;;;;;;;5086697;28;19942;-69
2022/09/28 14:19:56;;;;;;;;;;;;;;;;;;5083223;28;19928;-69
2022/09/28 14:22:23;;;;;;;;;;;;;;;;;;5092640;28;20428;-69
2022/09/28 14:24:50;;;;;;;;;;;;;;;;;;5079717;28;19925;-71
2022/09/28 14:27:17;;;;;;;;;;;;;;;;;;5082521;28;20353;-71
2022/09/28 14:29:44;;;;;;;;;;;;;;;;;;5088999;28;19928;-72
2022/09/28 14:32:11;;;;;;;;;;;;;;;;;;5093872;28;20370;-68
2022/09/28 14:34:38;;;;;;;;;;;;;;;;;;5081667;28;19932;-69
2022/09/28 14:42:34;;;;;;;;;;;;;;;;;;5084946;28;19935;-68
2022/09/28 14:45:01;;;;;;;;;;;;;;;;;;5084935;28;20374;-69
2022/09/28 14:47:28;;;;;;;;;;;;;;;;;;5090485;28;19931;-69
2022/09/28 14:49:55;;;;;;;;;;;;;;;;;;5090618;28;19924;-69
2022/09/28 14:52:22;;;;;;;;;;;;;;;;;;5086404;28;19931;-69
2022/09/28 14:54:49;;;;;;;;;;;;;;;;;;5096785;28;20344;-68
2022/09/28 14:57:16;;;;;;;;;;;;;;;;;;5081649;28;19933;-68
2022/09/28 14:59:44;;;;;;;;;;;;;;;;;;5082844;28;20738;-68
2022/09/28 15:02:12;;;;;;;;;;;;;;;;;;5081588;28;20437;-68
2022/09/28 15:04:39;;;;;;;;;;;;;;;;;;5083937;28;19932;-68
2022/09/28 15:07:06;;;;;;;;;;;;;;;;;;5087125;28;20029;-68
2022/09/28 15:09:33;;;;;;;;;;;;;;;;;;5090975;28;19928;-68
2022/09/28 15:12:00;;;;;;;;;;;;;;;;;;5085553;28;19928;-68
2022/09/28 15:14:30;;;;;;;;;;;;;;;;;;5088733;28;19935;-68
2022/09/28 15:16:57;;;;;;;;;;;;;;;;;;5088905;28;20015;-68
2022/09/28 15:19:24;;;;;;;;;;;;;;;;;;5088027;28;20010;-68
2022/09/28 15:21:51;;;;;;;;;;;;;;;;;;5087955;28;19932;-68
2022/09/28 15:24:18;;;;;;;;;;;;;;;;;;5088835;28;19928;-68
2022/09/28 15:26:45;;;;;;;;;;;;;;;;;;5086153;28;19924;-68
2022/09/28 15:29:12;;;;;;;;;;;;;;;;;;5086839;28;19931;-68
2022/09/28 15:31:39;;;;;;;;;;;;;;;;;;5087624;28;19931;-68
2022/09/28 15:36:55;;;;;;;;;;;;;;;;;;5089828;28;19927;-69
2022/09/28 15:39:22;;;;;;;;;;;;;;;;;;5087602;28;20318;-69
2022/09/28 15:41:49;;;;;;;;;;;;;;;;;;5091366;28;19935;-70
2022/09/28 15:44:17;;;;;;;;;;;;;;;;;;5088764;28;19928;-70
2022/09/28 15:46:46;;;;;;;;;;;;;;;;;;5089022;28;19935;-70
2022/09/28 15:49:14;;;;;;;;;;;;;;;;;;5084664;28;19927;-69
2022/09/28 15:51:41;;;;;;;;;;;;;;;;;;5089948;28;20574;-70
2022/09/28 15:54:08;;;;;;;;;;;;;;;;;;5087334;28;19931;-70
2022/09/28 15:56:35;;;;;;;;;;;;;;;;;;5087301;28;19928;-70
2022/09/28 15:59:02;;;;;;;;;;;;;;;;;;5089542;28;19934;-70
2022/09/28 16:01:34;;;;;;;;;;;;;;;;;;5092228;28;19936;-70
2022/09/28 16:04:01;;;;;;;;;;;;;;;;;;5090138;28;19931;-70
2022/09/28 16:06:28;;;;;;;;;;;;;;;;;;5088086;28;20461;-70
2022/09/28 16:08:55;;;;;;;;;;;;;;;;;;5090223;28;19924;-70
2022/09/28 16:11:23;;;;;;;;;;;;;;;;;;5088235;28;19950;-70
2022/09/28 16:13:50;;;;;;;;;;;;;;;;;;5091647;28;19924;-70
2022/09/28 16:16:17;;;;;;;;;;;;;;;;;;5088103;28;19928;-70
2022/09/28 16:18:46;;;;;;;;;;;;;;;;;;5086397;28;19924;-70
2022/09/28 16:21:13;;;;;;;;;;;;;;;;;;5084915;28;19951;-69
2022/09/28 16:23:40;;;;;;;;;;;;;;;;;;5082203;28;19924;-70
2022/09/28 16:26:07;;;;;;;;;;;;;;;;;;5084305;28;20054;-70
2022/09/28 16:28:34;;;;;;;;;;;;;;;;;;5089374;28;19924;-70
2022/09/28 16:31:01;;;;;;;;;;;;;;;;;;5083314;28;19928;-70
2022/09/28 16:33:28;;;;;;;;;;;;;;;;;;5080972;28;20401;-70
2022/09/28 16:35:55;;;;;;;;;;;;;;;;;;5087763;28;19963;-70
2022/09/28 16:38:22;;;;;;;;;;;;;;;;;;5079360;28;19928;-70
2022/09/28 16:40:51;;;;;;;;;;;;;;;;;;5088531;28;19931;-70
2022/09/28 16:43:18;;;;;;;;;;;;;;;;;;5085141;28;20094;-70
2022/09/28 16:45:45;;;;;;;;;;;;;;;;;;5085211;28;19977;-69
2022/09/28 16:48:12;;;;;;;;;;;;;;;;;;5087121;28;19928;-69
2022/09/28 16:50:39;;;;;;;;;;;;;;;;;;5087106;28;19935;-69
2022/09/28 16:55:51;;;;;;;;;;;;;;;;;;5076139;28;20077;-70
2022/09/28 16:58:18;;;;;;;;;;;;;;;;;;5082657;28;19932;-70
2022/09/28 17:00:45;;;;;;;;;;;;;;;;;;5082838;28;19924;-70
2022/09/28 17:03:12;;;;;;;;;;;;;;;;;;5079498;28;19928;-69
2022/09/28 17:05:39;;;;;;;;;;;;;;;;;;5085520;28;19928;-70